Geokinetics Inc (NASDAQOTH:GEOKQ)

CAPS Rating: No stars

The Company is a global provider of seismic data acquisition services in land, marsh and swamp and shallow water environments to the oil and natural gas industry.

Results 1 - 99 of 118 : 1 2 Next »
Top
Pick
Member Name Member
Rating
Start
Date
Call Time
Frame
Start
Price
Stock
Gain
Index
Gain
Score Commentary
artcorvelay < 20 5/14/2012 Outperform 1Y $1.32 -99.43% +53.63% -153.07 0 Comment
MoneyPlusSport < 20 1/25/2012 Underperform 5Y $2.00 -99.62% +57.19% +156.82 0 Comment
jdparksASI < 20 9/7/2011 Outperform 5Y $4.60 -99.84% +71.91% -171.75 0 Comment
GreenHillFarAway 28.98 8/22/2011 Outperform 5Y $3.99 -99.81% +82.33% -182.14 0 Comment
Rehydrogenated 33.43 3/29/2011 Outperform 5Y $8.68 -99.91% +57.37% -157.29 0 Comment
2011Fool 99.12 3/25/2011 Outperform NS $8.99 -99.92% +57.22% -157.13 0 Comment
LEGMAKER < 20 2/28/2011 Outperform 5Y $10.59 -99.93% +55.35% -155.28 0 Comment
hcve < 20 1/12/2011 Outperform 3W $9.41 -99.92% +61.10% -161.02 0 Comment
MagicMaggie < 20 12/7/2010 Outperform 5Y $9.35 -99.92% +66.48% -166.40 0 Comment
OberHund < 20 12/6/2010 Outperform 5Y $9.29 -99.92% +68.25% -168.17 0 Comment
tiger6667 < 20 12/1/2010 Outperform 5Y $8.51 -99.91% +71.66% -171.57 0 Comment
bullinnature 96.43 11/9/2009 11/8/2010 Outperform 3Y $12.72 -99.94% +91.14% -191.08 0 Comment
cletedinero < 20 10/18/2010 Outperform 5Y $7.31 -99.90% +74.71% -174.61 0 Comment
brilin 55.04 10/4/2010 Outperform 5Y $6.00 -99.88% +80.41% -180.28 0 Comment
smallandmidcap 97.96 8/10/2010 Underperform 5Y $4.51 -99.83% +84.17% +184.01 0 Comment
roth450 41.26 7/20/2010 Outperform NS $3.99 -99.81% +94.89% -194.70 0 Comment
EffinObama < 20 7/19/2010 Outperform 3Y $4.06 -99.82% +93.52% -193.34 0 Comment
thisyearslosers < 20 6/29/2010 Outperform 5Y $4.12 -99.82% +97.18% -197.00 0 Comment
institutionsdown < 20 6/22/2010 Outperform 5Y $4.88 -99.85% +85.20% -185.05 0 Comment
obsoleteaccount 21.67 6/21/2010 Outperform 5Y $4.91 -99.85% +85.67% -185.52 0 Comment
jroren 99.40 6/21/2010 Underperform 3M $5.36 -99.86% +82.40% +182.26 0 Comment
iddqkfyou < 20 5/11/2010 Outperform 5Y $6.30 -99.88% +79.31% -179.19 1 Comment
asitka 24.79 5/3/2010 Outperform 1Y $8.74 -99.91% +72.84% -172.75 0 Comment
Genomac 30.83 4/26/2010 Outperform 5Y $9.58 -99.92% +69.33% -169.25 0 Comment
HotDdogv2 < 20 4/26/2010 Outperform 5Y $9.58 -99.92% +69.33% -169.25 0 Comment
aliuce 31.90 4/23/2010 Outperform NS $9.53 -99.92% +70.13% -170.05 0 Comment
iamvoltron 24.58 4/22/2010 Outperform 5Y $8.47 -99.91% +72.22% -172.13 0 Comment
markantonythe3rd 32.06 4/20/2010 Outperform 5Y $8.21 -99.91% +71.09% -171.00 0 Comment
dashark44 90.56 4/19/2010 Outperform 5Y $7.81 -99.90% +73.71% -173.61 0 Comment
Powderiver < 20 4/12/2010 Outperform 5Y $7.94 -99.91% +72.33% -172.24 0 Comment
manjux 22.11 4/1/2010 Underperform 3M $7.32 -99.90% +75.11% +175.01 0 Comment
blue2fire < 20 3/22/2010 Outperform 5Y $7.39 -99.90% +78.94% -178.83 0 Comment
StThomasMoreEsq2 82.42 12/29/2009 2/19/2010 Outperform 3M $9.89 -99.92% +83.05% -182.97 0 Comment
HasOrHasNot 38.96 1/28/2010 Outperform 3Y $10.04 -99.93% +87.22% -187.14 0 Comment
FreeMortal 29.38 1/20/2010 Outperform 5Y $10.34 -99.93% +81.71% -181.64 0 Comment
StGiannaMolla < 20 1/11/2010 Outperform 5Y $10.53 -99.93% +79.79% -179.72 0 Comment
Clockworker < 20 1/6/2010 Outperform 5Y $9.84 -99.92% +81.65% -181.57 0 Comment
TMFPlatoish 95.74 12/16/2009 Outperform 5Y $9.27 -99.92% +84.27% -184.19 0 Comment
chinneymartin 69.04 11/13/2009 Outperform 5Y $13.20 -99.94% +87.71% -187.65 0 Comment
wkcgx2 21.83 11/9/2009 Outperform 5Y $13.18 -99.94% +90.11% -190.05 0 Comment
outperformONLY < 20 10/19/2009 Outperform 5Y $19.49 -99.96% +89.17% -189.13 0 Comment
pennycruncher < 20 10/19/2009 Outperform 5Y $19.49 -99.96% +89.17% -189.13 0 Comment
GIGManager < 20 10/8/2009 Outperform 3Y $19.24 -99.96% +93.25% -193.21 0 Comment
TotalStrange 96.20 8/12/2009 Outperform 1Y $14.58 -99.95% +105.77% -205.72 0 Comment
jddubya < 20 6/5/2009 Outperform 5Y $14.81 -99.95% +119.93% -219.88 0 Comment
TXmaverick < 20 6/2/2009 Underperform 3W $14.00 -99.95% +119.55% +219.49 1 Comment
marcet 71.29 5/28/2009 Outperform 5Y $13.26 -99.94% +129.34% -229.28 0 Comment
cwimbish 57.46 5/28/2009 Outperform 5Y $11.46 -99.93% +130.47% -230.41 1 Comment
theMovement 77.73 5/21/2009 Outperform 1Y $9.86 -99.92% +133.04% -232.97 0 Comment
unstoppablepeon 22.56 10/27/2008 Underperform NS $6.01 -99.88% +144.74% +244.62 1 Comment
moonleg 22.38 10/22/2008 Underperform 1Y $6.45 -99.88% +127.00% +226.89 0 Comment
Chiownknee 72.80 10/20/2008 Outperform 5Y $8.28 -99.91% +119.68% -219.59 0 Comment
IWalker182 20.25 10/17/2008 Outperform NS $8.44 -99.91% +122.50% -222.42 0 Comment
wakoma < 20 10/8/2008 Outperform NS $12.80 -99.94% +117.05% -217.00 1 Comment
istilldontcare 93.55 9/18/2008 Outperform 5Y $17.34 -99.96% +82.04% -181.99 0 Comment
unotsomuch < 20 8/20/2008 Outperform 3Y $19.10 -99.96% +67.14% -167.10 0 Comment
ejtrains 56.78 8/11/2008 Outperform NS $20.00 -99.96% +64.42% -164.39 0 Comment
joetheboss 34.08 6/11/2008 Outperform 3Y $19.57 -99.96% +58.41% -158.37 1 Comment
Sqwii < 20 6/10/2008 Outperform 1Y $20.32 -99.96% +56.95% -156.91 1 Comment
floridabull33 65.76 5/22/2008 Outperform 3M $20.64 -99.96% +53.55% -153.51 0 Comment
GDragonsDad 56.81 5/7/2008 Outperform NS $19.04 -99.96% +51.66% -151.63 0 Comment
TexasGeoTech < 20 4/30/2008 Outperform 3M $19.04 -99.96% +52.97% -152.93 0 Comment
JCASS714 67.97 4/29/2008 Outperform 5Y $18.82 -99.96% +53.58% -153.54 0 Comment
tuckerjack 37.18 4/17/2008 Outperform 5Y $19.60 -99.96% +57.12% -157.08 0 Comment
greengal1 < 20 4/17/2008 Outperform 3Y $19.60 -99.96% +57.12% -157.08 1 Comment
ctnotebo 27.90 4/11/2008 Outperform 3Y $17.56 -99.96% +58.67% -158.63 0 Comment
louisianacoonie 28.96 3/31/2008 Outperform NS $17.95 -99.96% +62.04% -161.99 0 Comment
bengalmomof4 82.20 3/28/2008 Underperform 3M $17.78 -99.96% +60.90% +160.86 0 Comment
chad07gt < 20 3/27/2008 Outperform NS $17.78 -99.96% +60.69% -160.64 0 Comment
MoltenTofu < 20 3/14/2008 Outperform NS $17.34 -99.96% +61.95% -161.91 0 Comment
AgendaPacific 35.97 3/14/2008 Outperform 3Y $17.34 -99.96% +61.95% -161.91 0 Comment
ToeInsider 31.29 3/10/2008 Outperform NS $16.26 -99.95% +65.65% -165.61 0 Comment
altitudeaddict 30.03 2/28/2008 Outperform 5Y $17.94 -99.96% +56.69% -156.64 0 Comment
tritterup 67.49 2/26/2008 Outperform NS $18.36 -99.96% +55.72% -155.68 0 Comment
arindamd < 20 2/26/2008 Outperform 1Y $17.79 -99.96% +56.71% -156.67 1 Comment
aalvarma < 20 2/20/2008 Outperform 1Y $17.66 -99.96% +60.48% -160.44 0 Comment
dmgchess 33.31 2/20/2008 Outperform 1Y $17.66 -99.96% +60.48% -160.44 0 Comment
thetoxman 79.79 2/14/2008 Outperform 1Y $17.31 -99.96% +57.02% -156.97 0 Comment
thatguy99 35.06 2/5/2008 Outperform 5Y $17.79 -99.96% +58.18% -158.14 0 Comment
mopomi 77.71 1/24/2008 Outperform 5Y $18.76 -99.96% +60.25% -160.21 0 Comment
ATWDLimited < 20 1/23/2008 Outperform NS $18.34 -99.96% +65.63% -165.59 0 Comment
financeman101 < 20 1/17/2008 Outperform NS $16.85 -99.96% +61.45% -161.40 0 Comment
evreeland 27.93 1/16/2008 Outperform 1Y $16.25 -99.95% +57.00% -156.95 0 Comment
Obyss 76.38 12/31/2007 Outperform 3W $19.14 -99.96% +46.18% -146.15 0 Comment
Kenster35OR < 20 12/24/2007 Outperform 1Y $20.20 -99.96% +44.49% -144.46 0 Comment
StockRakedotcom < 20 12/13/2007 Outperform NS $22.40 -99.97% +45.75% -145.72 0 Comment
everything4less 63.52 12/13/2007 Outperform 1Y $22.40 -99.97% +45.75% -145.72 0 Comment
beachlokal < 20 12/12/2007 Outperform 5Y $23.10 -99.97% +44.60% -144.56 0 Comment
WavingSpices < 20 12/5/2007 Outperform NS $22.10 -99.97% +45.81% -145.78 0 Comment
SaltyGenes 45.94 11/27/2007 Outperform 5Y $22.14 -99.97% +52.51% -152.48 0 Comment
apper < 20 11/21/2007 Outperform 5Y $22.58 -99.97% +52.11% -152.07 0 Comment
ProjectJack < 20 11/5/2007 Outperform 1Y $19.90 -99.96% +43.82% -143.78 0 Comment
IntenseSpider 88.71 10/25/2007 Outperform NS $22.86 -99.97% +43.88% -143.85 0 Comment
tv5cents 93.80 10/23/2007 Outperform 5Y $22.00 -99.97% +42.73% -142.69 0 Comment
JR9901 91.75 10/22/2007 Outperform 5Y $21.85 -99.97% +45.21% -145.18 0 Comment
Garranova 89.46 10/22/2007 Outperform NS $21.85 -99.97% +45.21% -145.18 0 Comment
cleveland503 87.56 10/15/2007 Outperform NS $24.60 -99.97% +38.34% -138.30 0 Comment
ATLDARK31 < 20 10/12/2007 Outperform 5Y $24.50 -99.97% +39.06% -139.03 0 Comment
SassyThunde 23.59 10/11/2007 Outperform NS $24.29 -99.97% +37.67% -137.64 0 Comment
Results 1 - 99 of 118 : 1 2 Next »

Featured Broker Partners